Time;durP1;ratioP1;P1;durP2;ratioP2;P2;SDS_P1;SDS_P2;PMS_P1;PMS_P2;Temp;Humidity;BMP_temperature;BMP_pressure;BME280_temperature;BME280_humidity;BME280_pressure;Samples;Min_cycle;Max_cycle;Signal;HPM_P1;HPM_P2
2023/12/13 00:01:26;;;;;;;4.88;3.72;;;;;;;;;;5045217;28;20427;-71
2023/12/13 00:03:54;;;;;;;7.88;3.40;;;;;;;;;;5043326;28;20495;-70
2023/12/13 00:06:21;;;;;;;6.43;3.45;;;;;;;;;;5031250;28;20439;-71
2023/12/13 00:08:49;;;;;;;6.88;3.03;;;;;;;;;;5036242;28;20870;-71
2023/12/13 00:11:16;;;;;;;5.55;3.00;;;;;;;;;;5042080;28;21125;-71
2023/12/13 00:13:44;;;;;;;3.80;2.65;;;;;;;;;;5048093;28;20851;-70
2023/12/13 00:16:11;;;;;;;5.05;2.78;;;;;;;;;;5047101;28;20461;-70
2023/12/13 00:18:39;;;;;;;5.95;2.88;;;;;;;;;;5039807;28;20437;-70
2023/12/13 00:21:06;;;;;;;6.23;2.60;;;;;;;;;;5044975;28;20494;-70
2023/12/13 00:23:34;;;;;;;4.88;2.60;;;;;;;;;;5040764;28;20446;-70
2023/12/13 00:26:02;;;;;;;5.45;2.70;;;;;;;;;;5042559;28;20506;-70
2023/12/13 00:28:29;;;;;;;4.22;2.38;;;;;;;;;;5044740;28;20941;-70
2023/12/13 00:30:57;;;;;;;2.97;2.30;;;;;;;;;;5044267;28;20797;-70
2023/12/13 00:33:24;;;;;;;7.03;2.85;;;;;;;;;;5057504;28;20438;-70
2023/12/13 00:35:51;;;;;;;5.45;3.00;;;;;;;;;;5050447;28;20431;-71
2023/12/13 00:38:18;;;;;;;5.60;2.90;;;;;;;;;;5043725;28;20425;-71
2023/12/13 00:40:45;;;;;;;4.87;3.10;;;;;;;;;;5039045;28;20554;-70
2023/12/13 00:43:13;;;;;;;4.25;2.80;;;;;;;;;;5045051;28;20450;-71
2023/12/13 00:45:40;;;;;;;6.30;2.83;;;;;;;;;;5059130;22;20425;-82
2023/12/13 00:48:08;;;;;;;5.45;2.90;;;;;;;;;;5030207;28;20528;-83
2023/12/13 00:50:35;;;;;;;5.75;2.92;;;;;;;;;;5027765;28;21020;-83
2023/12/13 00:53:02;;;;;;;5.72;3.22;;;;;;;;;;5034327;28;20459;-83
2023/12/13 00:55:29;;;;;;;6.50;3.10;;;;;;;;;;5038304;28;20734;-83
2023/12/13 00:57:57;;;;;;;5.53;3.30;;;;;;;;;;5034578;28;20912;-83
2023/12/13 01:00:25;;;;;;;5.38;3.33;;;;;;;;;;5035642;28;20425;-83
2023/12/13 01:02:52;;;;;;;8.02;3.30;;;;;;;;;;5057221;28;20459;-83
2023/12/13 01:05:20;;;;;;;11.23;3.13;;;;;;;;;;5048832;28;21030;-83
2023/12/13 01:07:47;;;;;;;6.85;2.63;;;;;;;;;;5019970;28;20425;-83
2023/12/13 01:10:14;;;;;;;8.23;2.67;;;;;;;;;;5025464;28;20939;-83
2023/12/13 01:12:42;;;;;;;5.15;2.33;;;;;;;;;;5054840;28;20430;-83
2023/12/13 01:15:12;;;;;;;5.35;2.10;;;;;;;;;;5051740;28;20963;-83
2023/12/13 01:17:39;;;;;;;4.72;2.05;;;;;;;;;;5028664;28;20421;-84
2023/12/13 01:20:09;;;;;;;5.75;1.80;;;;;;;;;;5026673;28;20433;-84
2023/12/13 01:22:36;;;;;;;5.53;1.83;;;;;;;;;;5044235;28;20499;-83
2023/12/13 01:25:04;;;;;;;6.57;1.80;;;;;;;;;;5027811;28;20426;-81
2023/12/13 01:27:31;;;;;;;10.88;2.05;;;;;;;;;;5028204;28;20540;-82
2023/12/13 01:29:58;;;;;;;7.35;1.73;;;;;;;;;;5047267;28;20866;-82
2023/12/13 01:32:26;;;;;;;7.65;1.70;;;;;;;;;;5053646;28;20479;-83
2023/12/13 01:34:53;;;;;;;5.82;1.88;;;;;;;;;;5049852;28;20436;-82
2023/12/13 01:37:20;;;;;;;2.35;1.77;;;;;;;;;;5028037;28;20454;-82
2023/12/13 01:39:48;;;;;;;6.22;1.60;;;;;;;;;;5058429;28;20433;-82
2023/12/13 01:42:15;;;;;;;6.28;1.73;;;;;;;;;;5027444;28;20433;-82
2023/12/13 01:44:42;;;;;;;5.13;1.50;;;;;;;;;;5022084;28;20545;-83
2023/12/13 01:47:10;;;;;;;4.80;1.48;;;;;;;;;;5020986;28;20427;-83
2023/12/13 01:49:37;;;;;;;4.53;1.50;;;;;;;;;;5038186;28;20439;-83
2023/12/13 01:52:04;;;;;;;6.20;1.60;;;;;;;;;;5048658;28;20431;-83
2023/12/13 01:54:32;;;;;;;3.25;1.67;;;;;;;;;;5031196;28;20459;-84
2023/12/13 01:56:59;;;;;;;4.07;1.10;;;;;;;;;;5046383;28;20855;-83
2023/12/13 01:59:28;;;;;;;4.28;1.17;;;;;;;;;;5035209;28;20426;-83
2023/12/13 02:01:56;;;;;;;5.22;1.50;;;;;;;;;;5047813;28;20435;-82
2023/12/13 02:04:25;;;;;;;3.20;1.10;;;;;;;;;;5036122;28;20440;-83
2023/12/13 02:06:53;;;;;;;5.40;1.40;;;;;;;;;;5042700;28;20433;-83
2023/12/13 02:09:20;;;;;;;3.00;1.02;;;;;;;;;;5053919;28;20445;-82
2023/12/13 02:11:47;;;;;;;3.38;1.10;;;;;;;;;;5040838;28;20810;-83
2023/12/13 02:14:15;;;;;;;8.05;1.10;;;;;;;;;;5033290;28;20475;-82
2023/12/13 02:16:42;;;;;;;4.85;1.20;;;;;;;;;;5035865;28;20508;-83
2023/12/13 02:19:10;;;;;;;4.47;1.30;;;;;;;;;;5039045;28;20954;-83
2023/12/13 02:21:38;;;;;;;4.45;1.13;;;;;;;;;;5035176;28;20506;-83
2023/12/13 02:24:07;;;;;;;4.85;1.42;;;;;;;;;;5039780;28;20435;-82
2023/12/13 02:26:40;;;;;;;6.25;1.40;;;;;;;;;;5031601;28;20519;-82
2023/12/13 02:29:08;;;;;;;3.72;1.13;;;;;;;;;;5054481;28;21903;-82
2023/12/13 02:31:36;;;;;;;4.63;1.38;;;;;;;;;;5037338;28;20439;-82
2023/12/13 02:34:03;;;;;;;4.97;1.10;;;;;;;;;;5042133;28;22140;-82
2023/12/13 02:36:30;;;;;;;3.10;1.20;;;;;;;;;;5040059;28;20688;-82
2023/12/13 02:38:57;;;;;;;2.88;1.42;;;;;;;;;;5049787;28;20466;-83
2023/12/13 02:41:25;;;;;;;5.18;1.50;;;;;;;;;;5040857;28;20423;-83
2023/12/13 02:43:52;;;;;;;3.83;1.30;;;;;;;;;;5028754;28;20531;-82
2023/12/13 02:46:19;;;;;;;4.00;1.63;;;;;;;;;;5029683;28;20446;-83
2023/12/13 02:48:46;;;;;;;4.38;1.45;;;;;;;;;;5033202;28;20435;-83
2023/12/13 02:51:14;;;;;;;4.63;1.52;;;;;;;;;;5026960;28;20935;-82
2023/12/13 02:53:41;;;;;;;2.65;1.60;;;;;;;;;;5043462;28;20491;-83
2023/12/13 02:56:08;;;;;;;4.72;1.77;;;;;;;;;;5039191;28;20440;-83
2023/12/13 02:58:35;;;;;;;3.20;1.50;;;;;;;;;;5024140;28;20703;-82
2023/12/13 03:01:03;;;;;;;4.07;1.55;;;;;;;;;;5046280;28;20437;-83
2023/12/13 03:03:30;;;;;;;3.25;1.60;;;;;;;;;;5040499;28;20779;-82
2023/12/13 03:05:57;;;;;;;5.65;1.73;;;;;;;;;;5031153;28;20433;-83
2023/12/13 03:08:24;;;;;;;3.15;1.52;;;;;;;;;;5028524;28;20794;-83
2023/12/13 03:10:51;;;;;;;3.97;1.65;;;;;;;;;;5033881;28;20924;-82
2023/12/13 03:13:19;;;;;;;6.30;1.70;;;;;;;;;;5030448;28;20433;-83
2023/12/13 03:15:46;;;;;;;4.75;1.33;;;;;;;;;;5057709;28;20433;-83
2023/12/13 03:18:13;;;;;;;5.20;1.50;;;;;;;;;;5039433;28;20465;-83
2023/12/13 03:20:40;;;;;;;5.40;1.55;;;;;;;;;;5040622;28;20431;-83
2023/12/13 03:23:09;;;;;;;5.28;1.52;;;;;;;;;;5044786;28;21013;-82
2023/12/13 03:25:36;;;;;;;4.40;1.45;;;;;;;;;;5044170;28;20440;-83
2023/12/13 03:28:04;;;;;;;4.10;1.60;;;;;;;;;;5038529;28;20498;-82
2023/12/13 03:30:31;;;;;;;8.82;2.10;;;;;;;;;;5024872;28;20459;-82
2023/12/13 03:32:58;;;;;;;5.13;1.60;;;;;;;;;;5037085;28;20431;-83
2023/12/13 03:35:25;;;;;;;3.65;1.58;;;;;;;;;;5036022;28;20440;-83
2023/12/13 03:37:52;;;;;;;3.37;1.50;;;;;;;;;;5050149;28;20562;-83
2023/12/13 03:40:20;;;;;;;5.70;1.70;;;;;;;;;;5021717;28;20435;-83
2023/12/13 03:42:47;;;;;;;3.85;1.70;;;;;;;;;;5042744;28;20488;-83
2023/12/13 03:45:14;;;;;;;3.70;1.53;;;;;;;;;;5023394;28;20982;-83
2023/12/13 03:47:42;;;;;;;5.78;1.83;;;;;;;;;;5028476;28;20423;-83
2023/12/13 03:50:10;;;;;;;3.50;1.27;;;;;;;;;;5044740;28;20449;-83
2023/12/13 03:52:37;;;;;;;6.25;1.50;;;;;;;;;;5038711;28;20472;-83
2023/12/13 03:55:04;;;;;;;3.67;1.60;;;;;;;;;;5049163;28;20955;-84
2023/12/13 03:57:32;;;;;;;2.90;1.80;;;;;;;;;;5043076;28;20508;-83
2023/12/13 03:59:59;;;;;;;6.85;1.58;;;;;;;;;;5025758;28;21093;-83
2023/12/13 04:02:26;;;;;;;5.22;1.50;;;;;;;;;;5055908;28;20427;-84
2023/12/13 04:04:53;;;;;;;6.15;1.55;;;;;;;;;;5035065;28;20427;-84
2023/12/13 04:07:21;;;;;;;3.80;1.67;;;;;;;;;;5049128;28;20987;-83
2023/12/13 04:09:48;;;;;;;4.18;1.45;;;;;;;;;;5041130;28;20924;-84
2023/12/13 04:12:16;;;;;;;5.97;1.83;;;;;;;;;;5040693;28;20698;-84
2023/12/13 04:14:45;;;;;;;4.68;1.55;;;;;;;;;;5040749;28;20433;-83
2023/12/13 04:17:12;;;;;;;6.03;1.33;;;;;;;;;;5042729;28;20428;-83
2023/12/13 04:19:39;;;;;;;6.40;1.52;;;;;;;;;;5025787;28;20433;-84
2023/12/13 04:22:06;;;;;;;6.95;1.48;;;;;;;;;;5034324;28;20425;-84
2023/12/13 04:24:33;;;;;;;6.72;1.88;;;;;;;;;;5038000;28;20778;-84
2023/12/13 04:27:01;;;;;;;4.43;1.50;;;;;;;;;;5042764;28;20500;-84
2023/12/13 04:29:29;;;;;;;4.35;1.65;;;;;;;;;;5041097;28;20433;-83
2023/12/13 04:31:57;;;;;;;7.45;1.25;;;;;;;;;;5054239;28;20433;-84
2023/12/13 04:34:24;;;;;;;1.42;1.13;;;;;;;;;;5036637;28;20453;-84
2023/12/13 04:36:52;;;;;;;5.82;1.70;;;;;;;;;;5019089;28;20433;-84
2023/12/13 04:39:19;;;;;;;2.35;1.15;;;;;;;;;;5045783;28;20436;-83
2023/12/13 04:41:46;;;;;;;4.10;1.27;;;;;;;;;;5033056;28;20980;-84
2023/12/13 04:44:13;;;;;;;3.50;1.10;;;;;;;;;;5043483;28;20459;-84
2023/12/13 04:46:43;;;;;;;5.20;1.35;;;;;;;;;;5041034;28;20442;-84
2023/12/13 04:49:10;;;;;;;4.00;1.05;;;;;;;;;;5034681;28;20424;-84
2023/12/13 04:51:37;;;;;;;6.07;1.43;;;;;;;;;;5030707;28;20436;-84
2023/12/13 04:54:05;;;;;;;2.35;1.30;;;;;;;;;;5026980;28;20518;-84
2023/12/13 04:56:32;;;;;;;2.92;1.15;;;;;;;;;;5046759;28;20491;-84
2023/12/13 04:58:59;;;;;;;3.92;1.38;;;;;;;;;;5038534;28;20498;-84
2023/12/13 05:01:27;;;;;;;3.00;1.10;;;;;;;;;;5046066;28;20518;-84
2023/12/13 05:03:54;;;;;;;4.45;1.58;;;;;;;;;;5022694;28;20470;-85
2023/12/13 05:06:21;;;;;;;5.53;1.40;;;;;;;;;;5042014;28;20491;-84
2023/12/13 05:08:49;;;;;;;1.83;1.23;;;;;;;;;;5027549;28;21011;-84
2023/12/13 05:11:16;;;;;;;2.67;1.30;;;;;;;;;;5024281;28;20437;-84
2023/12/13 05:13:43;;;;;;;2.40;1.17;;;;;;;;;;5022657;28;20516;-84
2023/12/13 05:16:10;;;;;;;4.77;1.20;;;;;;;;;;5046075;28;20440;-84
2023/12/13 05:18:38;;;;;;;4.00;1.40;;;;;;;;;;5050087;28;20470;-84
2023/12/13 05:21:05;;;;;;;5.35;1.55;;;;;;;;;;5030526;28;20429;-84
2023/12/13 05:23:33;;;;;;;5.33;1.27;;;;;;;;;;5029367;28;20411;-84
2023/12/13 05:26:00;;;;;;;5.47;1.40;;;;;;;;;;5055783;28;20429;-84
2023/12/13 05:28:28;;;;;;;5.78;1.67;;;;;;;;;;5028736;28;20428;-84
2023/12/13 05:30:55;;;;;;;5.10;1.40;;;;;;;;;;5041503;28;20453;-84
2023/12/13 05:33:23;;;;;;;3.70;1.23;;;;;;;;;;5028508;28;20437;-84
2023/12/13 05:35:50;;;;;;;5.87;1.40;;;;;;;;;;5030966;28;20922;-84
2023/12/13 05:38:20;;;;;;;3.72;1.48;;;;;;;;;;5034162;28;21013;-84
2023/12/13 05:40:47;;;;;;;3.28;1.55;;;;;;;;;;5050623;28;20504;-84
2023/12/13 05:43:14;;;;;;;3.97;1.60;;;;;;;;;;5035227;28;21024;-84
2023/12/13 05:45:41;;;;;;;3.80;1.70;;;;;;;;;;5031141;28;20702;-84
2023/12/13 05:48:09;;;;;;;3.25;1.80;;;;;;;;;;5046819;28;20432;-84
2023/12/13 05:50:36;;;;;;;2.33;1.65;;;;;;;;;;5032734;28;20447;-84
2023/12/13 05:53:03;;;;;;;5.50;2.40;;;;;;;;;;5033030;28;20437;-84
2023/12/13 05:55:30;;;;;;;5.15;2.20;;;;;;;;;;5026972;28;20468;-84
2023/12/13 05:57:58;;;;;;;6.18;2.30;;;;;;;;;;5038118;28;20485;-84
2023/12/13 06:00:25;;;;;;;4.82;2.20;;;;;;;;;;5028787;28;20427;-84
2023/12/13 06:02:52;;;;;;;5.00;2.30;;;;;;;;;;5031302;28;20496;-84
2023/12/13 06:05:23;;;;;;;5.45;2.83;;;;;;;;;;5061461;28;20425;-84
2023/12/13 06:07:51;;;;;;;6.22;2.30;;;;;;;;;;5029890;28;20516;-84
2023/12/13 06:10:18;;;;;;;4.20;2.03;;;;;;;;;;5045174;28;20523;-85
2023/12/13 06:12:46;;;;;;;3.00;1.90;;;;;;;;;;5038142;28;20797;-85
2023/12/13 06:15:13;;;;;;;3.55;2.00;;;;;;;;;;5028169;28;20904;-85
2023/12/13 06:17:40;;;;;;;5.50;2.10;;;;;;;;;;5012161;28;20911;-85
2023/12/13 06:20:08;;;;;;;6.45;2.15;;;;;;;;;;5050090;28;20435;-86
2023/12/13 06:22:36;;;;;;;3.67;2.17;;;;;;;;;;5028448;28;20435;-84
2023/12/13 06:25:03;;;;;;;4.35;2.17;;;;;;;;;;5038406;28;20429;-85
2023/12/13 06:27:30;;;;;;;4.30;2.17;;;;;;;;;;5030250;28;21115;-84
2023/12/13 06:29:58;;;;;;;4.88;2.10;;;;;;;;;;5023266;28;20541;-84
2023/12/13 06:32:25;;;;;;;4.25;1.90;;;;;;;;;;5037349;28;20435;-85
2023/12/13 06:34:52;;;;;;;4.50;2.45;;;;;;;;;;5018962;28;20439;-85
2023/12/13 06:37:20;;;;;;;5.53;2.40;;;;;;;;;;5024790;28;20942;-84
2023/12/13 06:39:47;;;;;;;4.05;2.20;;;;;;;;;;5027051;28;20846;-85
2023/12/13 06:42:18;;;;;;;6.15;2.65;;;;;;;;;;5056398;28;20547;-84
2023/12/13 06:44:45;;;;;;;4.28;2.90;;;;;;;;;;5042298;28;21840;-86
2023/12/13 06:47:12;;;;;;;6.15;3.05;;;;;;;;;;5037176;28;20436;-84
2023/12/13 06:49:40;;;;;;;7.77;4.07;;;;;;;;;;5040657;28;20542;-84
2023/12/13 06:52:07;;;;;;;8.15;4.20;;;;;;;;;;5037391;28;20521;-84
2023/12/13 06:54:34;;;;;;;7.75;4.30;;;;;;;;;;5018889;28;20431;-85
2023/12/13 06:57:02;;;;;;;12.63;4.20;;;;;;;;;;5043616;28;20501;-85
2023/12/13 06:59:29;;;;;;;8.65;4.40;;;;;;;;;;5016830;28;20439;-84
2023/12/13 07:01:56;;;;;;;9.88;4.57;;;;;;;;;;5018249;28;20516;-85
2023/12/13 07:04:23;;;;;;;11.50;4.57;;;;;;;;;;5040082;28;20422;-85
2023/12/13 07:06:54;;;;;;;7.43;4.30;;;;;;;;;;5038072;28;20929;-84
2023/12/13 07:09:22;;;;;;;8.20;4.10;;;;;;;;;;5051425;28;20502;-85
2023/12/13 07:11:49;;;;;;;10.10;3.97;;;;;;;;;;5041785;28;20485;-85
2023/12/13 07:14:17;;;;;;;8.15;3.83;;;;;;;;;;5026372;28;20471;-84
2023/12/13 07:16:45;;;;;;;10.40;3.97;;;;;;;;;;5036231;28;20458;-84
2023/12/13 07:19:13;;;;;;;9.20;4.13;;;;;;;;;;5025488;28;20470;-81
2023/12/13 07:21:41;;;;;;;6.77;4.00;;;;;;;;;;5036546;28;20435;-80
2023/12/13 07:24:08;;;;;;;8.25;4.38;;;;;;;;;;5026162;28;20466;-81
2023/12/13 07:26:35;;;;;;;11.35;4.57;;;;;;;;;;5043609;28;20484;-81
2023/12/13 07:29:02;;;;;;;8.68;4.22;;;;;;;;;;5027363;28;20462;-81
2023/12/13 07:31:30;;;;;;;9.47;4.70;;;;;;;;;;5044696;28;20812;-83
2023/12/13 07:33:57;;;;;;;7.63;4.20;;;;;;;;;;5053777;28;20804;-81
2023/12/13 07:36:29;;;;;;;7.85;4.32;;;;;;;;;;5037919;28;20538;-80
2023/12/13 07:38:56;;;;;;;8.27;4.22;;;;;;;;;;5041248;28;20433;-80
2023/12/13 07:41:25;;;;;;;5.78;4.05;;;;;;;;;;5046245;28;20431;-81
2023/12/13 07:43:52;;;;;;;9.95;4.20;;;;;;;;;;5034482;28;21003;-81
2023/12/13 07:46:20;;;;;;;8.18;3.75;;;;;;;;;;5025382;28;20805;-81
2023/12/13 07:48:51;;;;;;;8.43;4.10;;;;;;;;;;5035521;28;20499;-81
2023/12/13 07:51:19;;;;;;;6.15;3.40;;;;;;;;;;5025338;28;20436;-82
2023/12/13 07:53:46;;;;;;;7.07;3.25;;;;;;;;;;5020145;28;20464;-82
2023/12/13 07:56:13;;;;;;;9.77;4.00;;;;;;;;;;5025974;28;21262;-82
2023/12/13 07:58:53;;;;;;;7.75;3.40;;;;;;;;;;5019257;28;20446;-83
2023/12/13 08:01:23;;;;;;;8.65;3.78;;;;;;;;;;5019837;28;20444;-82
2023/12/13 08:03:50;;;;;;;4.93;3.03;;;;;;;;;;5010469;28;21096;-82
2023/12/13 08:06:21;;;;;;;6.50;3.22;;;;;;;;;;5022542;28;20438;-82
2023/12/13 08:08:48;;;;;;;5.43;3.22;;;;;;;;;;5024058;28;20448;-83
2023/12/13 08:11:16;;;;;;;6.28;3.58;;;;;;;;;;5025490;28;20429;-83
2023/12/13 08:13:44;;;;;;;5.60;3.40;;;;;;;;;;5044380;28;20900;-83
2023/12/13 08:16:11;;;;;;;5.22;3.38;;;;;;;;;;5026396;28;20454;-83
2023/12/13 08:18:38;;;;;;;7.70;3.47;;;;;;;;;;5027841;28;20517;-83
2023/12/13 08:21:06;;;;;;;8.20;3.50;;;;;;;;;;5027645;28;20504;-84
2023/12/13 08:23:34;;;;;;;6.32;2.90;;;;;;;;;;5025095;28;20425;-83
2023/12/13 08:26:02;;;;;;;6.10;3.13;;;;;;;;;;5034334;28;20435;-84
2023/12/13 08:28:29;;;;;;;5.47;2.80;;;;;;;;;;5029561;28;20433;-84
2023/12/13 08:30:56;;;;;;;5.53;2.70;;;;;;;;;;5025815;28;20455;-82
2023/12/13 08:33:35;;;;;;;5.37;2.80;;;;;;;;;;5025926;28;20877;-81
2023/12/13 08:36:04;;;;;;;7.40;2.45;;;;;;;;;;5040147;28;20504;-80
2023/12/13 08:38:31;;;;;;;5.57;2.55;;;;;;;;;;5026275;28;20946;-80
2023/12/13 08:40:59;;;;;;;3.50;2.15;;;;;;;;;;5045549;28;20431;-80
2023/12/13 08:43:26;;;;;;;5.20;2.22;;;;;;;;;;5030197;28;20436;-80
2023/12/13 08:45:53;;;;;;;3.03;2.05;;;;;;;;;;5039391;28;20792;-80
2023/12/13 08:48:20;;;;;;;4.20;2.23;;;;;;;;;;5021954;28;20441;-79
2023/12/13 08:50:47;;;;;;;5.95;2.40;;;;;;;;;;5023680;28;20441;-80
2023/12/13 08:53:14;;;;;;;4.47;2.47;;;;;;;;;;5044527;28;20482;-80
2023/12/13 08:55:42;;;;;;;5.25;2.70;;;;;;;;;;5037846;28;20518;-81
2023/12/13 08:58:11;;;;;;;5.53;2.60;;;;;;;;;;5025260;28;21004;-81
2023/12/13 09:00:38;;;;;;;7.55;3.10;;;;;;;;;;5029120;28;20425;-81
2023/12/13 09:03:06;;;;;;;4.28;2.90;;;;;;;;;;5049218;28;20440;-81
2023/12/13 09:05:33;;;;;;;6.78;3.15;;;;;;;;;;5027507;28;20669;-82
2023/12/13 09:08:00;;;;;;;5.60;3.38;;;;;;;;;;5047310;28;20436;-82
2023/12/13 09:10:27;;;;;;;3.92;3.00;;;;;;;;;;5029094;28;21049;-82
2023/12/13 09:12:54;;;;;;;4.82;3.22;;;;;;;;;;5041932;28;20796;-82
2023/12/13 09:15:22;;;;;;;6.00;2.95;;;;;;;;;;5029907;28;20805;-82
2023/12/13 09:17:49;;;;;;;3.28;2.40;;;;;;;;;;5035352;28;20435;-83
2023/12/13 09:20:16;;;;;;;4.72;2.90;;;;;;;;;;5041075;28;20455;-83
2023/12/13 09:22:44;;;;;;;2.50;2.30;;;;;;;;;;5034775;28;20649;-83
2023/12/13 09:25:14;;;;;;;2.70;2.40;;;;;;;;;;5039871;28;21133;-83
2023/12/13 09:27:42;;;;;;;3.15;2.10;;;;;;;;;;5028121;28;20448;-83
2023/12/13 09:30:11;;;;;;;2.83;2.00;;;;;;;;;;5057091;28;20415;-83
2023/12/13 09:32:39;;;;;;;2.10;2.00;;;;;;;;;;5066716;28;20758;-83
2023/12/13 09:35:07;;;;;;;2.60;1.48;;;;;;;;;;5053814;28;20491;-84
2023/12/13 09:37:34;;;;;;;3.33;1.60;;;;;;;;;;5054779;28;20429;-84
2023/12/13 09:40:02;;;;;;;2.65;1.48;;;;;;;;;;5032438;28;21015;-84
2023/12/13 09:42:30;;;;;;;4.38;1.83;;;;;;;;;;5036654;28;20513;-84
2023/12/13 09:44:59;;;;;;;2.20;1.30;;;;;;;;;;5029680;28;20813;-84
2023/12/13 09:47:28;;;;;;;4.38;1.52;;;;;;;;;;5035178;28;20436;-84
2023/12/13 09:49:55;;;;;;;1.38;1.30;;;;;;;;;;5028402;28;20440;-84
2023/12/13 09:52:22;;;;;;;2.30;1.40;;;;;;;;;;5041861;28;20538;-84
2023/12/13 09:54:50;;;;;;;2.53;1.20;;;;;;;;;;5053014;28;20429;-85
2023/12/13 09:57:17;;;;;;;2.53;1.60;;;;;;;;;;5051701;28;20736;-84
2023/12/13 09:59:46;;;;;;;3.33;1.80;;;;;;;;;;5038029;28;20446;-85
2023/12/13 10:02:14;;;;;;;1.88;1.65;;;;;;;;;;5045910;28;20860;-85
2023/12/13 10:04:43;;;;;;;4.22;1.73;;;;;;;;;;5026910;28;20528;-84
2023/12/13 10:07:11;;;;;;;2.10;1.40;;;;;;;;;;5045199;28;20805;-85
2023/12/13 10:09:38;;;;;;;2.50;1.20;;;;;;;;;;5045133;28;20524;-86
2023/12/13 10:12:09;;;;;;;2.75;1.30;;;;;;;;;;5048129;28;20465;-85
2023/12/13 10:14:36;;;;;;;1.55;1.30;;;;;;;;;;5034951;28;20454;-85
2023/12/13 10:17:03;;;;;;;6.20;1.57;;;;;;;;;;5028061;28;20453;-84
2023/12/13 10:19:45;;;;;;;3.05;1.60;;;;;;;;;;5024085;28;20433;-84
2023/12/13 10:22:13;;;;;;;1.60;1.50;;;;;;;;;;5026627;28;20828;-84
2023/12/13 10:24:41;;;;;;;4.50;1.40;;;;;;;;;;5028844;28;20522;-84
2023/12/13 10:27:09;;;;;;;2.88;1.27;;;;;;;;;;5031002;28;20439;-84
2023/12/13 10:29:37;;;;;;;1.42;1.33;;;;;;;;;;5023108;28;20523;-84
2023/12/13 10:32:04;;;;;;;1.50;1.23;;;;;;;;;;5045954;28;20561;-85
2023/12/13 10:34:31;;;;;;;1.88;1.30;;;;;;;;;;5022063;28;20432;-85
2023/12/13 10:36:58;;;;;;;3.08;1.40;;;;;;;;;;5018626;28;20433;-84
2023/12/13 10:39:26;;;;;;;1.67;1.58;;;;;;;;;;5025134;28;20449;-84
2023/12/13 10:41:55;;;;;;;2.22;1.40;;;;;;;;;;5054674;28;20789;-84
2023/12/13 10:44:24;;;;;;;3.75;1.63;;;;;;;;;;5034475;28;20485;-84
2023/12/13 10:46:58;;;;;;;2.60;1.33;;;;;;;;;;5032038;28;20436;-84
2023/12/13 10:49:26;;;;;;;2.20;1.40;;;;;;;;;;5039975;28;20466;-83
2023/12/13 10:51:54;;;;;;;1.40;1.30;;;;;;;;;;5031003;28;20609;-83
2023/12/13 10:54:21;;;;;;;2.10;1.10;;;;;;;;;;5018326;28;20939;-85
2023/12/13 10:56:49;;;;;;;1.80;1.23;;;;;;;;;;5027110;28;20425;-86
2023/12/13 10:59:16;;;;;;;1.83;1.20;;;;;;;;;;5025983;28;20459;-84
2023/12/13 11:01:45;;;;;;;2.15;1.40;;;;;;;;;;5027955;28;20823;-84
2023/12/13 11:04:16;;;;;;;1.53;1.30;;;;;;;;;;5019433;28;20448;-84
2023/12/13 11:06:46;;;;;;;1.90;1.20;;;;;;;;;;5041622;28;20437;-84
2023/12/13 11:09:21;;;;;;;1.40;1.30;;;;;;;;;;5044471;28;20437;-85
2023/12/13 11:11:48;;;;;;;1.40;1.30;;;;;;;;;;5045335;28;20445;-85
2023/12/13 11:14:17;;;;;;;2.30;1.50;;;;;;;;;;5028010;28;20662;-84
2023/12/13 11:16:49;;;;;;;1.80;1.20;;;;;;;;;;5024515;28;20513;-85
2023/12/13 11:19:21;;;;;;;2.75;1.38;;;;;;;;;;5021705;28;20856;-84
2023/12/13 11:21:52;;;;;;;2.90;1.30;;;;;;;;;;5048631;28;20437;-84
2023/12/13 11:24:26;;;;;;;1.75;1.30;;;;;;;;;;5027371;28;20439;-85
2023/12/13 11:26:58;;;;;;;2.50;1.30;;;;;;;;;;5034807;28;20615;-85
2023/12/13 11:29:33;;;;;;;2.70;1.48;;;;;;;;;;5017490;28;20505;-85
2023/12/13 11:32:01;;;;;;;3.60;1.70;;;;;;;;;;5036605;28;20510;-85
2023/12/13 11:34:32;;;;;;;2.58;1.30;;;;;;;;;;5035246;28;20512;-85
2023/12/13 11:37:00;;;;;;;2.60;1.58;;;;;;;;;;5027352;28;20515;-86
2023/12/13 11:39:31;;;;;;;3.17;1.37;;;;;;;;;;5028813;28;20429;-86
2023/12/13 11:41:58;;;;;;;2.33;1.10;;;;;;;;;;5024108;28;20488;-86
2023/12/13 11:44:32;;;;;;;2.90;1.37;;;;;;;;;;5025073;28;20425;-85
2023/12/13 11:47:00;;;;;;;1.73;1.20;;;;;;;;;;5011447;28;20447;-86
2023/12/13 11:49:28;;;;;;;0.93;0.90;;;;;;;;;;5031197;28;20449;-85
2023/12/13 11:51:56;;;;;;;1.80;1.17;;;;;;;;;;5020225;28;20429;-86
2023/12/13 11:54:23;;;;;;;1.15;1.05;;;;;;;;;;5025594;28;20440;-86
2023/12/13 11:56:51;;;;;;;0.75;0.75;;;;;;;;;;5022411;28;20924;-86
2023/12/13 11:59:21;;;;;;;2.17;0.90;;;;;;;;;;5032307;28;20470;-86
2023/12/13 12:01:49;;;;;;;1.60;0.90;;;;;;;;;;5054475;28;20428;-86
2023/12/13 12:04:18;;;;;;;0.95;0.90;;;;;;;;;;5045195;28;20431;-85
2023/12/13 12:06:50;;;;;;;1.23;0.80;;;;;;;;;;5022145;28;20470;-85
2023/12/13 12:09:17;;;;;;;2.42;1.10;;;;;;;;;;5043873;28;20528;-85
2023/12/13 12:11:44;;;;;;;1.10;0.80;;;;;;;;;;5022704;28;20439;-86
2023/12/13 12:14:11;;;;;;;0.60;0.60;;;;;;;;;;5028028;28;20794;-86
2023/12/13 12:16:39;;;;;;;1.30;0.80;;;;;;;;;;5031985;28;20860;-86
2023/12/13 12:19:06;;;;;;;0.70;0.70;;;;;;;;;;5039695;28;20462;-84
2023/12/13 12:21:35;;;;;;;1.38;0.73;;;;;;;;;;5028417;28;20456;-84
2023/12/13 12:24:04;;;;;;;1.52;0.50;;;;;;;;;;5023672;28;20429;-84
2023/12/13 12:26:31;;;;;;;0.70;0.38;;;;;;;;;;5049371;28;20440;-84
2023/12/13 12:28:58;;;;;;;1.25;0.50;;;;;;;;;;5032440;28;20433;-84
2023/12/13 12:31:25;;;;;;;1.88;0.70;;;;;;;;;;5046420;28;20464;-84
2023/12/13 12:33:56;;;;;;;0.60;0.47;;;;;;;;;;5022596;28;20957;-85
2023/12/13 12:36:24;;;;;;;1.30;0.70;;;;;;;;;;5038895;28;20439;-85
2023/12/13 12:38:51;;;;;;;1.98;0.60;;;;;;;;;;5031406;28;20509;-85
2023/12/13 12:41:19;;;;;;;1.10;0.50;;;;;;;;;;5032582;28;20425;-85
2023/12/13 12:43:52;;;;;;;0.90;0.52;;;;;;;;;;5026361;28;20455;-85
2023/12/13 12:46:21;;;;;;;1.55;0.45;;;;;;;;;;5029106;28;20816;-85
2023/12/13 12:48:48;;;;;;;1.83;0.50;;;;;;;;;;5040313;28;20435;-85
2023/12/13 12:51:15;;;;;;;2.33;0.68;;;;;;;;;;5054779;28;20491;-84
2023/12/13 12:53:43;;;;;;;2.03;0.60;;;;;;;;;;5028269;28;20435;-85
2023/12/13 12:56:12;;;;;;;2.42;0.50;;;;;;;;;;5026634;28;20528;-84
2023/12/13 12:58:39;;;;;;;0.50;0.50;;;;;;;;;;5027099;28;20472;-86
2023/12/13 13:01:06;;;;;;;2.22;0.60;;;;;;;;;;5022560;28;20446;-86
2023/12/13 13:03:34;;;;;;;1.67;0.50;;;;;;;;;;5036252;28;20849;-86
2023/12/13 13:06:03;;;;;;;1.42;0.70;;;;;;;;;;5037074;28;20429;-85
2023/12/13 13:08:32;;;;;;;0.80;0.40;;;;;;;;;;5063417;28;20432;-86
2023/12/13 13:11:00;;;;;;;1.50;0.60;;;;;;;;;;5029943;28;20431;-85
2023/12/13 13:13:28;;;;;;;2.43;0.80;;;;;;;;;;5018970;28;20445;-85
2023/12/13 13:15:55;;;;;;;1.50;0.60;;;;;;;;;;5041351;28;20433;-86
2023/12/13 13:18:22;;;;;;;2.85;0.60;;;;;;;;;;5028746;28;20455;-85
2023/12/13 13:20:49;;;;;;;2.38;0.52;;;;;;;;;;5036245;28;20433;-86
2023/12/13 13:23:16;;;;;;;1.00;0.60;;;;;;;;;;5026565;28;20459;-86
2023/12/13 13:25:44;;;;;;;1.05;0.60;;;;;;;;;;5035272;28;20841;-86
2023/12/13 13:28:11;;;;;;;2.40;0.80;;;;;;;;;;5037319;28;20423;-86
2023/12/13 13:30:39;;;;;;;3.05;0.90;;;;;;;;;;5037549;28;20497;-86
2023/12/13 13:33:06;;;;;;;1.98;0.60;;;;;;;;;;5028218;28;21046;-87
2023/12/13 13:35:33;;;;;;;1.17;0.60;;;;;;;;;;5052547;28;20425;-85
2023/12/13 13:38:00;;;;;;;2.10;0.70;;;;;;;;;;5035088;28;20453;-86
2023/12/13 13:40:28;;;;;;;1.23;0.50;;;;;;;;;;5050082;28;20443;-86
2023/12/13 13:42:57;;;;;;;2.40;0.60;;;;;;;;;;5046784;28;20538;-85
2023/12/13 13:45:24;;;;;;;2.42;0.70;;;;;;;;;;5046966;28;20428;-85
2023/12/13 13:47:51;;;;;;;1.70;0.57;;;;;;;;;;5048234;28;20491;-85
2023/12/13 13:50:21;;;;;;;0.95;0.70;;;;;;;;;;5054079;28;20455;-85
2023/12/13 13:52:48;;;;;;;1.67;0.82;;;;;;;;;;5031497;28;20730;-86
2023/12/13 13:55:16;;;;;;;2.08;0.90;;;;;;;;;;5031461;28;21017;-86
2023/12/13 13:57:44;;;;;;;3.55;0.90;;;;;;;;;;5036955;28;20880;-86
2023/12/13 14:00:13;;;;;;;1.60;0.82;;;;;;;;;;5026996;28;20448;-86
2023/12/13 14:02:45;;;;;;;1.60;0.75;;;;;;;;;;5029375;28;20460;-86
2023/12/13 14:05:12;;;;;;;2.72;1.10;;;;;;;;;;5053894;28;20439;-85
2023/12/13 14:07:40;;;;;;;2.80;0.90;;;;;;;;;;5022302;28;20468;-86
2023/12/13 14:10:08;;;;;;;2.22;0.90;;;;;;;;;;5042824;28;20490;-87
2023/12/13 14:12:35;;;;;;;2.33;1.17;;;;;;;;;;5030284;28;20435;-86
2023/12/13 14:15:03;;;;;;;4.55;1.00;;;;;;;;;;5047405;28;20436;-87
2023/12/13 14:17:32;;;;;;;2.25;0.95;;;;;;;;;;5033587;28;21101;-86
2023/12/13 14:20:00;;;;;;;1.77;0.95;;;;;;;;;;5028403;28;20429;-86
2023/12/13 14:22:28;;;;;;;1.10;1.00;;;;;;;;;;5030647;28;20431;-86
2023/12/13 14:24:55;;;;;;;1.23;0.98;;;;;;;;;;5034577;28;20849;-86
2023/12/13 14:27:22;;;;;;;1.50;0.90;;;;;;;;;;5028842;28;20437;-86
2023/12/13 14:29:49;;;;;;;2.80;0.90;;;;;;;;;;5039936;28;20434;-87
2023/12/13 14:32:16;;;;;;;2.03;1.10;;;;;;;;;;5018523;28;20435;-86
2023/12/13 14:34:44;;;;;;;1.95;1.00;;;;;;;;;;5043949;28;20519;-86
2023/12/13 14:37:11;;;;;;;3.58;1.00;;;;;;;;;;5024618;28;20495;-86
2023/12/13 14:39:42;;;;;;;1.48;1.00;;;;;;;;;;5046348;28;20994;-86
2023/12/13 14:42:09;;;;;;;1.33;0.95;;;;;;;;;;5029087;28;20444;-86
2023/12/13 14:44:37;;;;;;;2.78;1.00;;;;;;;;;;5040108;28;20827;-86
2023/12/13 14:47:05;;;;;;;2.70;1.40;;;;;;;;;;5012010;28;20419;-86